Maroa, IL (61756)

8:41 PM CST on February 09, 2016 (GMT -0600)
Lakefork Lane | | Change Station
CLOSE
Current Station
Personal Weather Station
Location: Maroa, IL
Elevation: 686 ft
Nearby Weather Stations

Elev 686 ft 40.04 °N, 89.03 °W | Updated 7 seconds ago

Snow
Snow
16.9 °F
Feels Like 11 °F
N
3.7
Wind Variable Wind from North

Today
High -- | Low -- °F
--% Chance of Precip.
Yesterday
High -- | Low -- °F
Precip. -- in
Pressure 30.03 in
Visibility 3.0 miles
Clouds Scattered Clouds 1700 ft
Overcast 3200 ft
Windchill 11 °F
Dew Point 13 °F
Humidity 85%
Rainfall 0.00 in
Snow Depth Not available.
6:56 AM 5:24 PM
Waxing Crescent, 3% visible
SPECI KDEC 100207Z 30013G19KT 3SM -SN SCT017 OVC032 M08/M12 A3003 RMK AO2 P0000 T10831122
Pressure 30.03 in
Visibility 3.0 miles
Clouds Scattered Clouds 1700 ft
Overcast 3200 ft
Windchill 11 °F
Dew Point 13 °F
Humidity 85%
Rainfall 0.00 in
Snow Depth Not available.
6:56 AM 5:24 PM
Waxing Crescent, 3% visible
SPECI KDEC 100207Z 30013G19KT 3SM -SN SCT017 OVC032 M08/M12 A3003 RMK AO2 P0000 T10831122

10-Day Weather Forecast

Almanac

Astronomy

Feb. 09, 2016 Rise Set
Actual Time
Civil Twilight
Nautical Twilight
Astronomical Twilight
Moon
Length of Visible Light
Length of Day
Tomorrow will be .
, % of the Moon is Illuminated

Today's Extremes

State Highs State Lows

Community

WunderPhotos

Upload Photos

1,891,786 photos uploaded!

WunderBlog® & News

Nearby

Air Quality

  Air Quality AQ Index Pollutant
Not available.

Snow Depth

Station Depth Elevation

Earthquake Activity

City Distance Mag. Time & Date
Minimum magnitude displayed is 2.5.

Coastal Water Temperatures

Place Temperature

Stations

Nearby Weather Stations

Station Location Temp. Windchill Dew Point Humidity Wind Precip. Elev Updated Type
                   

Watches & Warnings

There are currently no watches in effect.